sensor_id;sensor_type;location;lat;lon;timestamp;pressure;altitude;pressure_sealevel;temperature;humidity
8318;BME280;4196;48.926;8.964;2023-03-04T00:00:53;99663.44;;;-2.45;100.00
8318;BME280;4196;48.926;8.964;2023-03-04T00:03:39;99562.50;;;-2.95;100.00
8318;BME280;4196;48.926;8.964;2023-03-04T00:06:26;99639.13;;;-2.56;100.00
8318;BME280;4196;48.926;8.964;2023-03-04T00:09:12;99672.72;;;-2.31;100.00
8318;BME280;4196;48.926;8.964;2023-03-04T00:11:59;99640.25;;;-2.51;100.00
8318;BME280;4196;48.926;8.964;2023-03-04T00:14:45;99664.13;;;-2.33;100.00
8318;BME280;4196;48.926;8.964;2023-03-04T00:17:32;99615.06;;;-2.78;100.00
8318;BME280;4196;48.926;8.964;2023-03-04T00:20:18;99637.53;;;-2.54;100.00
8318;BME280;4196;48.926;8.964;2023-03-04T00:23:04;99673.94;;;-2.39;100.00
8318;BME280;4196;48.926;8.964;2023-03-04T00:25:51;99661.34;;;-2.37;100.00
8318;BME280;4196;48.926;8.964;2023-03-04T00:28:38;99683.03;;;-2.42;100.00
8318;BME280;4196;48.926;8.964;2023-03-04T00:31:25;99583.75;;;-2.93;100.00
8318;BME280;4196;48.926;8.964;2023-03-04T00:34:12;99656.09;;;-2.40;100.00
8318;BME280;4196;48.926;8.964;2023-03-04T00:36:58;99625.47;;;-2.58;100.00
8318;BME280;4196;48.926;8.964;2023-03-04T00:39:46;99645.25;;;-2.53;100.00
8318;BME280;4196;48.926;8.964;2023-03-04T00:42:33;99650.75;;;-2.60;100.00
8318;BME280;4196;48.926;8.964;2023-03-04T00:45:19;99680.22;;;-2.47;100.00
8318;BME280;4196;48.926;8.964;2023-03-04T00:48:05;99655.63;;;-2.63;100.00
8318;BME280;4196;48.926;8.964;2023-03-04T00:50:52;99686.25;;;-2.45;100.00
8318;BME280;4196;48.926;8.964;2023-03-04T00:53:39;99656.50;;;-2.62;100.00
8318;BME280;4196;48.926;8.964;2023-03-04T00:56:25;99624.13;;;-2.81;100.00
8318;BME280;4196;48.926;8.964;2023-03-04T00:59:11;99675.66;;;-2.53;100.00
8318;BME280;4196;48.926;8.964;2023-03-04T01:01:58;99637.69;;;-2.66;100.00
8318;BME280;4196;48.926;8.964;2023-03-04T01:04:44;99600.19;;;-2.86;100.00
8318;BME280;4196;48.926;8.964;2023-03-04T01:07:31;99661.75;;;-2.59;100.00
8318;BME280;4196;48.926;8.964;2023-03-04T01:10:19;99625.09;;;-2.79;100.00
8318;BME280;4196;48.926;8.964;2023-03-04T01:13:06;99631.75;;;-2.67;100.00
8318;BME280;4196;48.926;8.964;2023-03-04T01:15:52;99627.78;;;-2.76;100.00
8318;BME280;4196;48.926;8.964;2023-03-04T01:18:39;99633.22;;;-2.85;100.00
8318;BME280;4196;48.926;8.964;2023-03-04T01:21:27;99657.50;;;-2.46;100.00
8318;BME280;4196;48.926;8.964;2023-03-04T01:24:14;99660.34;;;-2.54;100.00
8318;BME280;4196;48.926;8.964;2023-03-04T01:27:00;99613.75;;;-2.71;100.00
8318;BME280;4196;48.926;8.964;2023-03-04T01:29:46;99663.97;;;-2.06;100.00
8318;BME280;4196;48.926;8.964;2023-03-04T01:32:32;99625.66;;;-1.96;100.00
8318;BME280;4196;48.926;8.964;2023-03-04T01:35:19;99651.94;;;-1.64;100.00
8318;BME280;4196;48.926;8.964;2023-03-04T01:38:05;99599.53;;;-1.79;100.00
8318;BME280;4196;48.926;8.964;2023-03-04T01:40:52;99596.03;;;-1.81;100.00
8318;BME280;4196;48.926;8.964;2023-03-04T01:43:39;99654.25;;;-1.38;100.00
8318;BME280;4196;48.926;8.964;2023-03-04T01:46:25;99661.63;;;-1.26;100.00
8318;BME280;4196;48.926;8.964;2023-03-04T01:49:13;99662.09;;;-1.33;100.00
8318;BME280;4196;48.926;8.964;2023-03-04T01:52:01;99639.00;;;-1.38;100.00
8318;BME280;4196;48.926;8.964;2023-03-04T01:54:47;99660.28;;;-1.36;100.00
8318;BME280;4196;48.926;8.964;2023-03-04T01:57:34;99656.16;;;-1.34;100.00
8318;BME280;4196;48.926;8.964;2023-03-04T02:00:26;99658.84;;;-1.31;100.00
8318;BME280;4196;48.926;8.964;2023-03-04T02:03:15;99623.63;;;-1.56;100.00
8318;BME280;4196;48.926;8.964;2023-03-04T02:06:05;99616.94;;;-1.70;100.00
8318;BME280;4196;48.926;8.964;2023-03-04T02:08:52;99630.91;;;-1.47;100.00
8318;BME280;4196;48.926;8.964;2023-03-04T02:11:39;99617.50;;;-1.59;100.00
8318;BME280;4196;48.926;8.964;2023-03-04T02:14:26;99589.03;;;-1.85;100.00
8318;BME280;4196;48.926;8.964;2023-03-04T02:17:13;99628.66;;;-1.41;100.00
8318;BME280;4196;48.926;8.964;2023-03-04T02:20:14;99639.47;;;-1.45;100.00
8318;BME280;4196;48.926;8.964;2023-03-04T02:23:20;99640.94;;;-1.49;100.00
8318;BME280;4196;48.926;8.964;2023-03-04T02:26:11;99637.34;;;-1.68;100.00
8318;BME280;4196;48.926;8.964;2023-03-04T02:28:58;99629.28;;;-1.61;100.00
8318;BME280;4196;48.926;8.964;2023-03-04T02:31:49;99629.50;;;-1.57;100.00
8318;BME280;4196;48.926;8.964;2023-03-04T02:34:37;99603.06;;;-1.77;100.00
8318;BME280;4196;48.926;8.964;2023-03-04T02:37:26;99610.66;;;-1.91;100.00
8318;BME280;4196;48.926;8.964;2023-03-04T02:40:17;99619.16;;;-1.76;100.00
8318;BME280;4196;48.926;8.964;2023-03-04T02:43:10;99644.84;;;-1.70;100.00
8318;BME280;4196;48.926;8.964;2023-03-04T02:45:56;99610.38;;;-2.12;100.00
8318;BME280;4196;48.926;8.964;2023-03-04T02:48:43;99651.19;;;-1.78;100.00
8318;BME280;4196;48.926;8.964;2023-03-04T02:51:29;99634.94;;;-1.97;100.00
8318;BME280;4196;48.926;8.964;2023-03-04T02:54:18;99568.50;;;-2.50;100.00
8318;BME280;4196;48.926;8.964;2023-03-04T02:57:07;99626.91;;;-2.34;100.00
8318;BME280;4196;48.926;8.964;2023-03-04T02:59:56;99620.41;;;-2.29;100.00
8318;BME280;4196;48.926;8.964;2023-03-04T03:02:45;99629.50;;;-2.17;100.00
8318;BME280;4196;48.926;8.964;2023-03-04T03:05:33;99654.78;;;-2.19;100.00
8318;BME280;4196;48.926;8.964;2023-03-04T03:08:20;99626.22;;;-2.16;100.00
8318;BME280;4196;48.926;8.964;2023-03-04T03:11:07;99649.66;;;-2.21;100.00
8318;BME280;4196;48.926;8.964;2023-03-04T03:13:55;99578.16;;;-2.73;100.00
8318;BME280;4196;48.926;8.964;2023-03-04T03:16:42;99649.34;;;-2.40;100.00
8318;BME280;4196;48.926;8.964;2023-03-04T03:19:29;99625.66;;;-2.26;100.00
8318;BME280;4196;48.926;8.964;2023-03-04T03:22:18;99639.66;;;-2.17;100.00
8318;BME280;4196;48.926;8.964;2023-03-04T03:25:05;99640.56;;;-2.17;100.00
8318;BME280;4196;48.926;8.964;2023-03-04T03:27:51;99567.44;;;-2.69;100.00
8318;BME280;4196;48.926;8.964;2023-03-04T03:30:38;99621.81;;;-2.34;100.00
8318;BME280;4196;48.926;8.964;2023-03-04T03:33:25;99631.78;;;-2.37;100.00
8318;BME280;4196;48.926;8.964;2023-03-04T03:36:11;99637.72;;;-2.22;100.00
8318;BME280;4196;48.926;8.964;2023-03-04T03:38:58;99652.78;;;-2.25;100.00
8318;BME280;4196;48.926;8.964;2023-03-04T03:41:44;99594.19;;;-2.59;100.00
8318;BME280;4196;48.926;8.964;2023-03-04T03:44:31;99613.22;;;-2.51;100.00
8318;BME280;4196;48.926;8.964;2023-03-04T03:47:17;99600.13;;;-2.58;100.00
8318;BME280;4196;48.926;8.964;2023-03-04T03:50:04;99607.47;;;-2.48;100.00
8318;BME280;4196;48.926;8.964;2023-03-04T03:52:50;99615.19;;;-2.47;100.00
8318;BME280;4196;48.926;8.964;2023-03-04T03:55:37;99594.38;;;-2.56;100.00
8318;BME280;4196;48.926;8.964;2023-03-04T03:58:24;99645.78;;;-2.29;100.00
8318;BME280;4196;48.926;8.964;2023-03-04T04:01:12;99587.84;;;-2.80;100.00
8318;BME280;4196;48.926;8.964;2023-03-04T04:03:59;99573.34;;;-2.98;100.00
8318;BME280;4196;48.926;8.964;2023-03-04T04:06:45;99613.94;;;-2.68;100.00
8318;BME280;4196;48.926;8.964;2023-03-04T04:09:32;99653.13;;;-2.48;100.00
8318;BME280;4196;48.926;8.964;2023-03-04T04:12:19;99649.50;;;-2.67;100.00
8318;BME280;4196;48.926;8.964;2023-03-04T04:15:06;99580.00;;;-3.13;100.00
8318;BME280;4196;48.926;8.964;2023-03-04T04:17:53;99586.06;;;-3.11;100.00
8318;BME280;4196;48.926;8.964;2023-03-04T04:20:39;99606.75;;;-2.90;100.00
8318;BME280;4196;48.926;8.964;2023-03-04T04:23:26;99616.53;;;-3.09;100.00
8318;BME280;4196;48.926;8.964;2023-03-04T04:26:12;99648.53;;;-2.83;100.00
8318;BME280;4196;48.926;8.964;2023-03-04T04:28:59;99630.59;;;-3.14;100.00
8318;BME280;4196;48.926;8.964;2023-03-04T04:31:45;99622.59;;;-3.21;100.00
8318;BME280;4196;48.926;8.964;2023-03-04T04:34:32;99639.69;;;-2.90;100.00
8318;BME280;4196;48.926;8.964;2023-03-04T04:37:18;99631.03;;;-3.07;100.00
8318;BME280;4196;48.926;8.964;2023-03-04T04:40:05;99636.56;;;-2.99;100.00
8318;BME280;4196;48.926;8.964;2023-03-04T04:42:52;99581.03;;;-3.24;100.00
8318;BME280;4196;48.926;8.964;2023-03-04T04:45:38;99646.13;;;-2.80;100.00
8318;BME280;4196;48.926;8.964;2023-03-04T04:48:24;99614.19;;;-3.06;100.00
8318;BME280;4196;48.926;8.964;2023-03-04T04:51:11;99650.81;;;-3.01;100.00
8318;BME280;4196;48.926;8.964;2023-03-04T04:53:59;99624.78;;;-3.27;100.00
8318;BME280;4196;48.926;8.964;2023-03-04T04:56:46;99622.44;;;-3.24;100.00
8318;BME280;4196;48.926;8.964;2023-03-04T04:59:32;99623.84;;;-3.42;100.00
8318;BME280;4196;48.926;8.964;2023-03-04T05:02:19;99615.88;;;-3.61;100.00
8318;BME280;4196;48.926;8.964;2023-03-04T05:05:06;99670.09;;;-3.45;100.00
8318;BME280;4196;48.926;8.964;2023-03-04T05:07:52;99638.09;;;-3.84;100.00
8318;BME280;4196;48.926;8.964;2023-03-04T05:10:39;99645.09;;;-3.53;100.00
8318;BME280;4196;48.926;8.964;2023-03-04T05:13:25;99634.31;;;-3.77;100.00
8318;BME280;4196;48.926;8.964;2023-03-04T05:16:12;99584.97;;;-3.71;100.00
8318;BME280;4196;48.926;8.964;2023-03-04T05:18:59;99668.97;;;-3.08;100.00
8318;BME280;4196;48.926;8.964;2023-03-04T05:21:46;99637.19;;;-3.31;100.00
8318;BME280;4196;48.926;8.964;2023-03-04T05:24:32;99643.13;;;-3.44;100.00
8318;BME280;4196;48.926;8.964;2023-03-04T05:27:19;99656.00;;;-3.68;100.00
8318;BME280;4196;48.926;8.964;2023-03-04T05:30:06;99632.16;;;-3.84;100.00
8318;BME280;4196;48.926;8.964;2023-03-04T05:32:53;99650.28;;;-3.78;100.00
8318;BME280;4196;48.926;8.964;2023-03-04T05:35:40;99666.50;;;-3.88;100.00
8318;BME280;4196;48.926;8.964;2023-03-04T05:38:27;99652.00;;;-3.91;100.00
8318;BME280;4196;48.926;8.964;2023-03-04T05:41:13;99657.56;;;-3.96;100.00
8318;BME280;4196;48.926;8.964;2023-03-04T05:43:59;99642.97;;;-4.00;100.00
8318;BME280;4196;48.926;8.964;2023-03-04T05:46:45;99630.44;;;-4.12;100.00
8318;BME280;4196;48.926;8.964;2023-03-04T05:49:32;99681.50;;;-3.91;100.00
8318;BME280;4196;48.926;8.964;2023-03-04T05:52:18;99651.91;;;-4.05;100.00
8318;BME280;4196;48.926;8.964;2023-03-04T05:55:05;99653.97;;;-3.86;100.00
8318;BME280;4196;48.926;8.964;2023-03-04T05:57:52;99619.03;;;-4.05;100.00
8318;BME280;4196;48.926;8.964;2023-03-04T06:00:39;99674.88;;;-3.49;100.00
8318;BME280;4196;48.926;8.964;2023-03-04T06:03:25;99672.75;;;-3.70;100.00
8318;BME280;4196;48.926;8.964;2023-03-04T06:06:12;99666.72;;;-3.85;100.00
8318;BME280;4196;48.926;8.964;2023-03-04T06:08:58;99691.59;;;-3.65;100.00
8318;BME280;4196;48.926;8.964;2023-03-04T06:11:45;99695.13;;;-3.49;100.00
8318;BME280;4196;48.926;8.964;2023-03-04T06:14:32;99707.38;;;-3.29;100.00
8318;BME280;4196;48.926;8.964;2023-03-04T06:17:18;99685.44;;;-3.15;100.00
8318;BME280;4196;48.926;8.964;2023-03-04T06:20:05;99695.84;;;-3.10;100.00
8318;BME280;4196;48.926;8.964;2023-03-04T06:22:52;99715.69;;;-3.03;100.00
8318;BME280;4196;48.926;8.964;2023-03-04T06:25:38;99650.97;;;-3.26;100.00
8318;BME280;4196;48.926;8.964;2023-03-04T06:28:25;99711.06;;;-2.82;100.00
8318;BME280;4196;48.926;8.964;2023-03-04T06:31:11;99687.22;;;-2.86;100.00
8318;BME280;4196;48.926;8.964;2023-03-04T06:33:57;99683.28;;;-2.81;100.00
8318;BME280;4196;48.926;8.964;2023-03-04T06:36:43;99694.47;;;-2.77;100.00
8318;BME280;4196;48.926;8.964;2023-03-04T06:39:30;99675.25;;;-2.74;100.00
8318;BME280;4196;48.926;8.964;2023-03-04T06:42:18;99697.50;;;-2.55;100.00
8318;BME280;4196;48.926;8.964;2023-03-04T06:45:05;99708.66;;;-2.38;100.00
8318;BME280;4196;48.926;8.964;2023-03-04T06:47:52;99725.38;;;-2.27;100.00
8318;BME280;4196;48.926;8.964;2023-03-04T06:50:39;99732.50;;;-2.49;100.00
8318;BME280;4196;48.926;8.964;2023-03-04T06:53:26;99716.13;;;-2.54;100.00
8318;BME280;4196;48.926;8.964;2023-03-04T06:56:13;99734.97;;;-2.36;100.00
8318;BME280;4196;48.926;8.964;2023-03-04T06:59:02;99733.91;;;-2.39;100.00
8318;BME280;4196;48.926;8.964;2023-03-04T07:01:48;99722.25;;;-2.51;100.00
8318;BME280;4196;48.926;8.964;2023-03-04T07:04:35;99716.09;;;-2.26;100.00
8318;BME280;4196;48.926;8.964;2023-03-04T07:07:21;99735.91;;;-2.21;100.00
8318;BME280;4196;48.926;8.964;2023-03-04T07:10:09;99737.72;;;-1.88;100.00
8318;BME280;4196;48.926;8.964;2023-03-04T07:12:56;99718.78;;;-1.80;100.00
8318;BME280;4196;48.926;8.964;2023-03-04T07:15:42;99719.59;;;-1.50;100.00
8318;BME280;4196;48.926;8.964;2023-03-04T07:18:29;99713.91;;;-1.46;100.00
8318;BME280;4196;48.926;8.964;2023-03-04T07:21:16;99693.31;;;-1.36;100.00
8318;BME280;4196;48.926;8.964;2023-03-04T07:24:03;99731.19;;;-0.93;100.00
8318;BME280;4196;48.926;8.964;2023-03-04T07:26:49;99737.41;;;-0.71;100.00
8318;BME280;4196;48.926;8.964;2023-03-04T07:29:36;99749.03;;;-0.60;100.00
8318;BME280;4196;48.926;8.964;2023-03-04T07:32:22;99723.44;;;-0.63;100.00
8318;BME280;4196;48.926;8.964;2023-03-04T07:35:09;99757.78;;;-0.39;100.00
8318;BME280;4196;48.926;8.964;2023-03-04T07:37:55;99749.09;;;-0.26;100.00
8318;BME280;4196;48.926;8.964;2023-03-04T07:40:42;99740.94;;;-0.37;100.00
8318;BME280;4196;48.926;8.964;2023-03-04T07:43:28;99740.84;;;-0.22;100.00
8318;BME280;4196;48.926;8.964;2023-03-04T07:46:16;99746.81;;;-0.21;100.00
8318;BME280;4196;48.926;8.964;2023-03-04T07:49:02;99716.81;;;-0.27;100.00
8318;BME280;4196;48.926;8.964;2023-03-04T07:51:48;99741.78;;;-0.04;100.00
8318;BME280;4196;48.926;8.964;2023-03-04T07:54:35;99757.72;;;0.10;100.00
8318;BME280;4196;48.926;8.964;2023-03-04T07:57:21;99748.19;;;0.06;100.00
8318;BME280;4196;48.926;8.964;2023-03-04T08:00:09;99753.88;;;0.18;100.00
8318;BME280;4196;48.926;8.964;2023-03-04T08:02:59;99788.00;;;0.38;100.00
8318;BME280;4196;48.926;8.964;2023-03-04T08:05:45;99751.84;;;0.11;100.00
8318;BME280;4196;48.926;8.964;2023-03-04T08:08:32;99795.84;;;0.43;100.00
8318;BME280;4196;48.926;8.964;2023-03-04T08:11:19;99782.78;;;0.53;100.00
8318;BME280;4196;48.926;8.964;2023-03-04T08:14:06;99789.47;;;0.69;100.00
8318;BME280;4196;48.926;8.964;2023-03-04T08:16:52;99785.38;;;0.55;100.00
8318;BME280;4196;48.926;8.964;2023-03-04T08:19:39;99784.09;;;0.45;100.00
8318;BME280;4196;48.926;8.964;2023-03-04T08:22:26;99764.69;;;0.31;100.00
8318;BME280;4196;48.926;8.964;2023-03-04T08:25:12;99774.00;;;0.30;100.00
8318;BME280;4196;48.926;8.964;2023-03-04T08:27:58;99791.31;;;0.71;100.00
8318;BME280;4196;48.926;8.964;2023-03-04T08:30:51;99715.13;;;0.24;100.00
8318;BME280;4196;48.926;8.964;2023-03-04T08:33:38;99793.72;;;0.68;100.00
8318;BME280;4196;48.926;8.964;2023-03-04T08:36:25;99791.13;;;0.85;100.00
8318;BME280;4196;48.926;8.964;2023-03-04T08:39:13;99750.84;;;0.78;100.00
8318;BME280;4196;48.926;8.964;2023-03-04T08:41:59;99748.84;;;0.90;100.00
8318;BME280;4196;48.926;8.964;2023-03-04T08:44:46;99781.81;;;1.23;100.00
8318;BME280;4196;48.926;8.964;2023-03-04T08:47:32;99764.03;;;1.24;100.00
8318;BME280;4196;48.926;8.964;2023-03-04T08:50:19;99766.47;;;1.40;100.00
8318;BME280;4196;48.926;8.964;2023-03-04T08:53:07;99774.88;;;1.77;100.00
8318;BME280;4196;48.926;8.964;2023-03-04T08:55:53;99777.31;;;1.93;100.00
8318;BME280;4196;48.926;8.964;2023-03-04T08:58:40;99701.50;;;1.73;100.00
8318;BME280;4196;48.926;8.964;2023-03-04T09:01:26;99756.16;;;1.96;100.00
8318;BME280;4196;48.926;8.964;2023-03-04T09:04:13;99754.78;;;2.04;100.00
8318;BME280;4196;48.926;8.964;2023-03-04T09:07:00;99763.47;;;1.88;100.00
8318;BME280;4196;48.926;8.964;2023-03-04T09:09:46;99772.84;;;2.08;100.00
8318;BME280;4196;48.926;8.964;2023-03-04T09:12:33;99765.31;;;2.11;100.00
8318;BME280;4196;48.926;8.964;2023-03-04T09:15:19;99790.69;;;2.28;100.00
8318;BME280;4196;48.926;8.964;2023-03-04T09:18:05;99723.97;;;2.41;100.00
8318;BME280;4196;48.926;8.964;2023-03-04T09:20:52;99784.22;;;2.78;100.00
8318;BME280;4196;48.926;8.964;2023-03-04T09:23:38;99772.50;;;2.83;100.00
8318;BME280;4196;48.926;8.964;2023-03-04T09:26:27;99760.50;;;3.03;100.00
8318;BME280;4196;48.926;8.964;2023-03-04T09:29:14;99765.16;;;3.13;100.00
8318;BME280;4196;48.926;8.964;2023-03-04T09:32:00;99757.28;;;3.31;96.75
8318;BME280;4196;48.926;8.964;2023-03-04T09:34:47;99750.94;;;3.44;95.45
8318;BME280;4196;48.926;8.964;2023-03-04T09:37:33;99732.19;;;3.21;92.64
8318;BME280;4196;48.926;8.964;2023-03-04T09:40:39;99786.63;;;3.39;91.67
8318;BME280;4196;48.926;8.964;2023-03-04T09:43:27;99784.03;;;3.61;93.91
8318;BME280;4196;48.926;8.964;2023-03-04T09:46:35;99760.16;;;3.62;89.81
8318;BME280;4196;48.926;8.964;2023-03-04T09:49:24;99775.97;;;3.75;86.41
8318;BME280;4196;48.926;8.964;2023-03-04T09:55:21;99758.63;;;3.68;84.85
8318;BME280;4196;48.926;8.964;2023-03-04T10:01:40;99790.19;;;4.15;87.52
8318;BME280;4196;48.926;8.964;2023-03-04T10:04:55;99785.22;;;4.19;85.58
8318;BME280;4196;48.926;8.964;2023-03-04T10:07:48;99764.75;;;3.95;83.49
8318;BME280;4196;48.926;8.964;2023-03-04T10:10:40;99765.72;;;3.99;84.13
8318;BME280;4196;48.926;8.964;2023-03-04T10:16:35;99761.47;;;3.99;85.00
8318;BME280;4196;48.926;8.964;2023-03-04T10:23:15;99743.75;;;4.05;82.55
8318;BME280;4196;48.926;8.964;2023-03-04T10:26:12;99754.69;;;4.25;82.12
8318;BME280;4196;48.926;8.964;2023-03-04T10:28:59;99721.38;;;4.01;82.48
8318;BME280;4196;48.926;8.964;2023-03-04T10:31:48;99692.50;;;3.80;84.23
8318;BME280;4196;48.926;8.964;2023-03-04T10:34:34;99769.75;;;3.92;82.63
8318;BME280;4196;48.926;8.964;2023-03-04T10:37:21;99736.56;;;3.71;83.53
8318;BME280;4196;48.926;8.964;2023-03-04T10:40:18;99695.66;;;3.49;84.19
8318;BME280;4196;48.926;8.964;2023-03-04T10:43:05;99730.31;;;3.63;83.87
8318;BME280;4196;48.926;8.964;2023-03-04T10:45:57;99738.31;;;3.48;82.95
8318;BME280;4196;48.926;8.964;2023-03-04T10:48:44;99732.59;;;3.55;83.86
8318;BME280;4196;48.926;8.964;2023-03-04T10:51:30;99734.00;;;3.47;84.63
8318;BME280;4196;48.926;8.964;2023-03-04T10:54:47;99756.91;;;3.67;85.80
8318;BME280;4196;48.926;8.964;2023-03-04T10:57:40;99699.59;;;3.39;85.17
8318;BME280;4196;48.926;8.964;2023-03-04T11:00:30;99710.16;;;3.48;84.30
8318;BME280;4196;48.926;8.964;2023-03-04T11:03:23;99752.13;;;3.76;81.66
8318;BME280;4196;48.926;8.964;2023-03-04T11:06:21;99737.31;;;3.93;82.68
8318;BME280;4196;48.926;8.964;2023-03-04T11:09:21;99741.19;;;4.05;79.18
8318;BME280;4196;48.926;8.964;2023-03-04T11:12:13;99746.47;;;3.86;77.80
8318;BME280;4196;48.926;8.964;2023-03-04T11:15:01;99726.22;;;3.44;81.24
8318;BME280;4196;48.926;8.964;2023-03-04T11:17:51;99699.94;;;3.26;81.49
8318;BME280;4196;48.926;8.964;2023-03-04T11:20:41;99744.31;;;3.26;80.99
8318;BME280;4196;48.926;8.964;2023-03-04T11:23:49;99722.00;;;3.22;81.06
8318;BME280;4196;48.926;8.964;2023-03-04T11:26:42;99714.28;;;3.21;80.90
8318;BME280;4196;48.926;8.964;2023-03-04T11:29:35;99718.19;;;3.35;81.13
8318;BME280;4196;48.926;8.964;2023-03-04T11:32:27;99725.06;;;3.36;82.55
8318;BME280;4196;48.926;8.964;2023-03-04T11:35:31;99739.78;;;3.19;82.08
8318;BME280;4196;48.926;8.964;2023-03-04T11:38:23;99734.50;;;3.14;84.47
8318;BME280;4196;48.926;8.964;2023-03-04T11:41:21;99733.94;;;2.99;84.74
8318;BME280;4196;48.926;8.964;2023-03-04T11:44:11;99735.78;;;3.03;83.83
8318;BME280;4196;48.926;8.964;2023-03-04T11:47:10;99699.28;;;2.85;83.28
8318;BME280;4196;48.926;8.964;2023-03-04T11:50:25;99732.22;;;3.00;84.00
8318;BME280;4196;48.926;8.964;2023-03-04T11:53:28;99731.59;;;3.05;84.43
8318;BME280;4196;48.926;8.964;2023-03-04T11:56:43;99697.41;;;2.58;85.31
8318;BME280;4196;48.926;8.964;2023-03-04T12:12:21;99703.59;;;2.65;84.58
8318;BME280;4196;48.926;8.964;2023-03-04T12:18:24;99707.97;;;3.12;84.30
8318;BME280;4196;48.926;8.964;2023-03-04T12:21:29;99672.28;;;2.93;81.47
8318;BME280;4196;48.926;8.964;2023-03-04T12:24:33;99697.66;;;3.09;80.25
8318;BME280;4196;48.926;8.964;2023-03-04T12:27:50;99686.91;;;3.20;80.66
8318;BME280;4196;48.926;8.964;2023-03-04T12:33:57;99679.34;;;3.23;80.15
8318;BME280;4196;48.926;8.964;2023-03-04T12:36:52;99686.78;;;3.39;81.05
8318;BME280;4196;48.926;8.964;2023-03-04T12:39:50;99673.31;;;3.45;80.79
8318;BME280;4196;48.926;8.964;2023-03-04T12:45:46;99668.97;;;3.66;79.87
8318;BME280;4196;48.926;8.964;2023-03-04T12:54:57;99668.53;;;3.54;78.60
8318;BME280;4196;48.926;8.964;2023-03-04T12:57:45;99634.03;;;3.43;78.77
8318;BME280;4196;48.926;8.964;2023-03-04T13:06:47;99643.97;;;3.59;79.02
8318;BME280;4196;48.926;8.964;2023-03-04T13:09:46;99600.78;;;3.44;79.17
8318;BME280;4196;48.926;8.964;2023-03-04T13:15:39;99621.81;;;3.11;78.66
8318;BME280;4196;48.926;8.964;2023-03-04T13:18:30;99649.03;;;3.09;79.63
8318;BME280;4196;48.926;8.964;2023-03-04T13:21:43;99643.53;;;2.99;79.90
8318;BME280;4196;48.926;8.964;2023-03-04T13:24:45;99645.13;;;3.43;79.52
8318;BME280;4196;48.926;8.964;2023-03-04T13:36:33;99611.41;;;3.31;78.54
8318;BME280;4196;48.926;8.964;2023-03-04T13:39:23;99660.22;;;3.35;79.28
8318;BME280;4196;48.926;8.964;2023-03-04T13:42:40;99644.00;;;3.12;80.98
8318;BME280;4196;48.926;8.964;2023-03-04T13:45:37;99585.91;;;2.86;81.06
8318;BME280;4196;48.926;8.964;2023-03-04T13:48:29;99621.81;;;2.87;82.37
8318;BME280;4196;48.926;8.964;2023-03-04T13:57:20;99642.75;;;3.49;81.65
8318;BME280;4196;48.926;8.964;2023-03-04T14:00:11;99618.22;;;3.30;80.41
8318;BME280;4196;48.926;8.964;2023-03-04T14:03:11;99591.38;;;2.95;81.45
8318;BME280;4196;48.926;8.964;2023-03-04T14:06:20;99601.03;;;3.02;81.68
8318;BME280;4196;48.926;8.964;2023-03-04T14:09:16;99578.00;;;2.80;82.31
8318;BME280;4196;48.926;8.964;2023-03-04T14:12:13;99606.34;;;3.08;82.53
8318;BME280;4196;48.926;8.964;2023-03-04T14:18:03;99597.09;;;3.12;82.27
8318;BME280;4196;48.926;8.964;2023-03-04T14:20:50;99598.50;;;3.04;82.31
8318;BME280;4196;48.926;8.964;2023-03-04T14:23:44;99627.59;;;3.30;83.29
8318;BME280;4196;48.926;8.964;2023-03-04T14:26:30;99622.34;;;3.27;83.11
8318;BME280;4196;48.926;8.964;2023-03-04T14:32:10;99603.41;;;3.22;82.43
8318;BME280;4196;48.926;8.964;2023-03-04T14:35:04;99556.16;;;2.88;82.56
8318;BME280;4196;48.926;8.964;2023-03-04T14:38:04;99603.13;;;3.38;83.42
8318;BME280;4196;48.926;8.964;2023-03-04T14:41:05;99578.47;;;3.40;82.03
8318;BME280;4196;48.926;8.964;2023-03-04T14:46:48;99595.28;;;3.57;82.38
8318;BME280;4196;48.926;8.964;2023-03-04T14:49:52;99589.94;;;3.51;81.78
8318;BME280;4196;48.926;8.964;2023-03-04T14:52:41;99593.25;;;3.49;82.32
8318;BME280;4196;48.926;8.964;2023-03-04T14:55:28;99582.91;;;3.46;82.46
8318;BME280;4196;48.926;8.964;2023-03-04T14:58:23;99589.06;;;3.51;82.45
8318;BME280;4196;48.926;8.964;2023-03-04T15:01:15;99532.63;;;3.22;82.86
8318;BME280;4196;48.926;8.964;2023-03-04T15:04:04;99543.44;;;3.39;83.09
8318;BME280;4196;48.926;8.964;2023-03-04T15:06:52;99562.53;;;3.49;82.88
8318;BME280;4196;48.926;8.964;2023-03-04T15:09:39;99557.91;;;3.38;82.78
8318;BME280;4196;48.926;8.964;2023-03-04T15:12:28;99583.88;;;3.49;83.34
8318;BME280;4196;48.926;8.964;2023-03-04T15:15:42;99536.13;;;3.00;83.89
8318;BME280;4196;48.926;8.964;2023-03-04T15:18:29;99529.28;;;2.99;84.50
8318;BME280;4196;48.926;8.964;2023-03-04T15:24:09;99541.66;;;3.12;84.87
8318;BME280;4196;48.926;8.964;2023-03-04T15:26:56;99561.66;;;3.23;84.57
8318;BME280;4196;48.926;8.964;2023-03-04T15:29:43;99552.13;;;3.19;85.18
8318;BME280;4196;48.926;8.964;2023-03-04T15:32:29;99573.00;;;3.31;84.96
8318;BME280;4196;48.926;8.964;2023-03-04T15:35:17;99576.50;;;3.33;85.47
8318;BME280;4196;48.926;8.964;2023-03-04T15:38:05;99523.31;;;2.99;85.40
8318;BME280;4196;48.926;8.964;2023-03-04T15:40:53;99564.34;;;3.27;86.41
8318;BME280;4196;48.926;8.964;2023-03-04T15:43:40;99578.09;;;3.29;85.80
8318;BME280;4196;48.926;8.964;2023-03-04T15:46:27;99574.44;;;3.23;85.45
8318;BME280;4196;48.926;8.964;2023-03-04T15:49:13;99524.88;;;2.95;86.59
8318;BME280;4196;48.926;8.964;2023-03-04T15:52:02;99566.31;;;3.34;86.48
8318;BME280;4196;48.926;8.964;2023-03-04T15:54:50;99541.78;;;3.15;86.55
8318;BME280;4196;48.926;8.964;2023-03-04T15:57:36;99544.28;;;3.14;86.26
8318;BME280;4196;48.926;8.964;2023-03-04T16:00:23;99571.75;;;3.20;87.20
8318;BME280;4196;48.926;8.964;2023-03-04T16:03:13;99572.28;;;3.09;87.65
8318;BME280;4196;48.926;8.964;2023-03-04T16:06:00;99507.09;;;2.74;88.31
8318;BME280;4196;48.926;8.964;2023-03-04T16:08:47;99547.31;;;3.02;87.98
8318;BME280;4196;48.926;8.964;2023-03-04T16:11:38;99561.59;;;2.97;87.59
8318;BME280;4196;48.926;8.964;2023-03-04T16:14:27;99568.13;;;2.89;88.72
8318;BME280;4196;48.926;8.964;2023-03-04T16:17:13;99519.03;;;2.51;89.28
8318;BME280;4196;48.926;8.964;2023-03-04T16:20:03;99585.75;;;2.81;90.85
8318;BME280;4196;48.926;8.964;2023-03-04T16:22:52;99582.50;;;2.85;90.17
8318;BME280;4196;48.926;8.964;2023-03-04T16:25:44;99578.69;;;2.98;90.26
8318;BME280;4196;48.926;8.964;2023-03-04T16:28:31;99567.06;;;3.06;89.97
8318;BME280;4196;48.926;8.964;2023-03-04T16:31:19;99544.09;;;2.84;90.19
8318;BME280;4196;48.926;8.964;2023-03-04T16:34:06;99559.63;;;2.90;91.04
8318;BME280;4196;48.926;8.964;2023-03-04T16:36:52;99564.13;;;2.96;90.59